Time;durP1;ratioP1;P1;durP2;ratioP2;P2;SDS_P1;SDS_P2;PMS_P1;PMS_P2;Temp;Humidity;BMP_temperature;BMP_pressure;BME280_temperature;BME280_humidity;BME280_pressure;Samples;Min_cycle;Max_cycle;Signal;HPM_P1;HPM_P2
2022/07/23 00:01:27;;;;;;;;;;;;;;;22.27;51.89;100732.13;4842664;28;98055;-64
2022/07/23 00:04:19;;;;;;;;;;;;;;;22.24;52.01;100735.56;4842242;28;97956;-63
2022/07/23 00:07:12;;;;;;;;;;;;;;;22.19;52.19;100741.25;4842635;28;98798;-57
2022/07/23 00:10:05;;;;;;;;;;;;;;;22.17;52.27;100746.28;4842533;28;98632;-57
2022/07/23 00:12:57;;;;;;;;;;;;;;;22.13;52.22;100753.59;4841901;28;98061;-63
2022/07/23 00:15:50;;;;;;;;;;;;;;;22.09;52.23;100760.88;4842485;28;98507;-63
2022/07/23 00:18:43;;;;;;;;;;;;;;;22.05;52.41;100754.47;4841832;28;98586;-58
2022/07/23 00:21:35;;;;;;;;;;;;;;;22.01;52.48;100754.34;4828077;28;97954;-57
2022/07/23 00:24:28;;;;;;;;;;;;;;;21.97;52.48;100750.66;4841515;28;97806;-63
2022/07/23 00:27:21;;;;;;;;;;;;;;;21.93;52.64;100746.16;4842895;28;98957;-64
2022/07/23 00:30:13;;;;;;;;;;;;;;;21.90;52.52;100757.84;4841820;28;98539;-57
2022/07/23 00:33:23;;;;;;;;;;;;;;;21.87;52.59;100764.78;4841933;28;97992;-63
2022/07/23 00:36:16;;;;;;;;;;;;;;;21.82;52.64;100759.50;4885045;28;98075;-57
2022/07/23 00:39:09;;;;;;;;;;;;;;;21.78;52.63;100762.13;4841569;28;98141;-65
2022/07/23 00:42:01;;;;;;;;;;;;;;;21.75;52.69;100765.53;4841473;28;98493;-57
2022/07/23 00:44:54;;;;;;;;;;;;;;;21.73;52.63;100751.38;4841102;28;97927;-63
2022/07/23 00:47:46;;;;;;;;;;;;;;;21.71;52.69;100758.31;4841537;28;98050;-62
2022/07/23 00:50:39;;;;;;;;;;;;;;;21.70;52.66;100763.00;4823549;28;98569;-57
2022/07/23 00:53:31;;;;;;;;;;;;;;;21.67;52.73;100758.19;4822494;28;98478;-64
2022/07/23 00:56:24;;;;;;;;;;;;;;;21.64;52.77;100750.63;4836856;28;97925;-63
2022/07/23 00:59:17;;;;;;;;;;;;;;;21.60;52.84;100738.72;4841024;28;98296;-63
2022/07/23 01:02:10;;;;;;;;;;;;;;;21.59;52.87;100741.78;4896436;28;98588;-63
2022/07/23 01:05:03;;;;;;;;;;;;;;;21.56;52.76;100746.00;4841829;28;98842;-57
2022/07/23 01:07:55;;;;;;;;;;;;;;;21.54;52.86;100740.84;4841562;28;99402;-57
2022/07/23 01:10:48;;;;;;;;;;;;;;;21.52;52.91;100745.06;4841399;28;97770;-63
2022/07/23 01:13:41;;;;;;;;;;;;;;;21.48;52.88;100744.94;4841642;28;98513;-63
2022/07/23 01:16:33;;;;;;;;;;;;;;;21.46;53.06;100735.44;4841450;28;98922;-57
2022/07/23 01:19:26;;;;;;;;;;;;;;;21.44;53.09;100738.50;4841474;28;98298;-63
2022/07/23 01:22:20;;;;;;;;;;;;;;;21.42;53.27;100735.31;4841989;28;97846;-64
2022/07/23 01:25:12;;;;;;;;;;;;;;;21.40;53.31;100731.28;4840212;28;97939;-63
2022/07/23 01:28:05;;;;;;;;;;;;;;;21.36;53.62;100730.34;4840738;28;98182;-64
2022/07/23 01:30:57;;;;;;;;;;;;;;;21.31;53.71;100723.09;4822599;28;97988;-64
2022/07/23 01:33:50;;;;;;;;;;;;;;;21.27;53.82;100722.16;4822474;28;97949;-64
2022/07/23 01:36:42;;;;;;;;;;;;;;;21.22;53.91;100706.72;4823310;28;98368;-64
2022/07/23 01:39:35;;;;;;;;;;;;;;;21.20;53.96;100711.72;4832003;28;98224;-64
2022/07/23 01:42:27;;;;;;;;;;;;;;;21.18;53.94;100702.22;4841057;28;98055;-63
2022/07/23 01:45:20;;;;;;;;;;;;;;;21.16;53.97;100685.31;4841977;28;98289;-57
2022/07/23 01:48:29;;;;;;;;;;;;;;;21.12;53.92;100678.91;4917024;28;97717;-57
2022/07/23 01:51:22;;;;;;;;;;;;;;;21.08;53.78;100671.34;4881817;28;98224;-64
2022/07/23 01:54:15;;;;;;;;;;;;;;;21.01;53.89;100668.31;4898002;28;98511;-57
2022/07/23 01:57:07;;;;;;;;;;;;;;;20.96;53.99;100664.97;4979497;28;98418;-57
2022/07/23 02:00:00;;;;;;;;;;;;;;;20.91;54.08;100665.97;4928199;27;98202;-64
2022/07/23 02:02:52;;;;;;;;;;;;;;;20.87;54.12;100654.09;4896712;28;98015;-64
2022/07/23 02:05:45;;;;;;;;;;;;;;;20.82;54.21;100657.00;4897571;28;98507;-65
2022/07/23 02:08:38;;;;;;;;;;;;;;;20.78;54.27;100656.84;4895418;28;98688;-57
2022/07/23 02:11:30;;;;;;;;;;;;;;;20.76;54.37;100653.66;4897135;27;97904;-58
2022/07/23 02:14:23;;;;;;;;;;;;;;;20.72;54.56;100644.50;4897717;28;97830;-57
2022/07/23 02:17:15;;;;;;;;;;;;;;;20.70;54.51;100638.53;4896603;28;98802;-64
2022/07/23 02:20:08;;;;;;;;;;;;;;;20.67;54.59;100643.88;4898121;28;97818;-57
2022/07/23 02:23:03;;;;;;;;;;;;;;;20.64;54.78;100637.13;4896478;28;98259;-58
2022/07/23 02:25:56;;;;;;;;;;;;;;;20.61;54.75;100634.25;4878610;28;98088;-64
2022/07/23 02:28:48;;;;;;;;;;;;;;;20.57;54.94;100640.38;4879309;28;98607;-64
2022/07/23 02:31:41;;;;;;;;;;;;;;;20.54;54.90;100632.81;4897257;28;98311;-57
2022/07/23 02:34:25;;;;;;;;;;;;;;;;;;4897113;28;98040;-58
2022/07/23 02:37:18;;;;;;;;;;;;;;;20.50;55.10;100631.09;4895441;28;98367;-64
2022/07/23 02:40:11;;;;;;;;;;;;;;;20.48;54.89;100636.06;4897040;28;98053;-64
2022/07/23 02:43:04;;;;;;;;;;;;;;;20.47;55.12;100637.97;4895915;28;98365;-65
2022/07/23 02:45:57;;;;;;;;;;;;;;;20.47;55.15;100632.50;4877240;28;98392;-57
2022/07/23 02:48:49;;;;;;;;;;;;;;;20.46;54.97;100619.94;4879024;28;97916;-64
2022/07/23 02:51:42;;;;;;;;;;;;;;;20.46;55.25;100613.69;4896002;28;98499;-64
2022/07/23 02:54:35;;;;;;;;;;;;;;;20.46;55.15;100616.41;4896444;28;98663;-64
2022/07/23 02:57:28;;;;;;;;;;;;;;;20.45;55.12;100632.03;4895334;28;97868;-65
2022/07/23 03:00:21;;;;;;;;;;;;;;;20.45;55.14;100650.41;4885016;28;98295;-57
2022/07/23 03:03:13;;;;;;;;;;;;;;;20.44;55.28;100615.97;4882204;28;98392;-65
2022/07/23 03:06:06;;;;;;;;;;;;;;;20.45;55.45;100598.41;4884151;28;98430;-58
2022/07/23 03:08:59;;;;;;;;;;;;;;;20.45;55.69;100598.41;4866839;28;97947;-58
2022/07/23 03:11:51;;;;;;;;;;;;;;;20.45;55.83;100614.81;4883339;28;97881;-58
2022/07/23 03:14:44;;;;;;;;;;;;;;;20.45;55.95;100614.81;4883722;28;98473;-57
2022/07/23 03:17:36;;;;;;;;;;;;;;;20.44;56.25;100621.44;4882940;28;99510;-65
2022/07/23 03:20:29;;;;;;;;;;;;;;;20.42;56.32;100601.78;4883770;28;98079;-58
2022/07/23 03:23:21;;;;;;;;;;;;;;;20.41;56.42;100606.47;4883226;28;97899;-65
2022/07/23 03:26:14;;;;;;;;;;;;;;;20.41;56.58;100613.88;4882693;28;98546;-64
2022/07/23 03:29:06;;;;;;;;;;;;;;;20.41;56.68;100606.47;4882299;28;98115;-66
2022/07/23 03:31:59;;;;;;;;;;;;;;;20.40;56.69;100598.59;4882724;28;98017;-58
2022/07/23 03:34:52;;;;;;;;;;;;;;;20.41;56.50;100611.94;4884634;28;97876;-58
2022/07/23 03:37:44;;;;;;;;;;;;;;;20.42;56.94;100629.16;4882545;28;98830;-57
2022/07/23 03:40:37;;;;;;;;;;;;;;;20.45;57.18;100647.66;4883211;28;98945;-64
2022/07/23 03:43:29;;;;;;;;;;;;;;;20.48;57.32;100636.06;4882534;28;97962;-57
2022/07/23 03:46:22;;;;;;;;;;;;;;;20.51;57.15;100613.50;4882814;28;98025;-58
2022/07/23 03:49:14;;;;;;;;;;;;;;;20.54;57.09;100615.59;4881962;28;98146;-63
2022/07/23 03:52:07;;;;;;;;;;;;;;;20.55;57.17;100622.66;4882838;28;98194;-57
2022/07/23 03:55:00;;;;;;;;;;;;;;;20.56;57.05;100627.84;4884234;28;98275;-65
2022/07/23 03:57:52;;;;;;;;;;;;;;;20.58;57.02;100622.81;4883142;28;97786;-64
2022/07/23 04:00:45;;;;;;;;;;;;;;;20.61;56.94;100613.16;4882856;28;98335;-64
2022/07/23 04:03:37;;;;;;;;;;;;;;;20.64;56.99;100604.28;4873406;28;98491;-65
2022/07/23 04:06:30;;;;;;;;;;;;;;;20.67;57.13;100602.78;4883322;28;97889;-58
2022/07/23 04:09:23;;;;;;;;;;;;;;;20.67;56.97;100611.84;4883287;28;98037;-64
2022/07/23 04:12:15;;;;;;;;;;;;;;;20.68;57.01;100615.38;4882345;28;98577;-65
2022/07/23 04:15:08;;;;;;;;;;;;;;;20.69;56.94;100625.97;4882728;28;97867;-57
2022/07/23 04:18:00;;;;;;;;;;;;;;;20.71;57.06;100642.06;4881344;28;98144;-64
2022/07/23 04:20:53;;;;;;;;;;;;;;;20.72;57.00;100649.19;4883220;28;98246;-66
2022/07/23 04:23:46;;;;;;;;;;;;;;;20.74;57.06;100652.38;4881807;28;98405;-58
2022/07/23 04:26:38;;;;;;;;;;;;;;;20.80;56.85;100654.59;4882500;28;99102;-57
2022/07/23 04:29:31;;;;;;;;;;;;;;;20.88;56.79;100650.19;4881272;28;98234;-58
2022/07/23 04:32:24;;;;;;;;;;;;;;;20.95;56.60;100644.19;4882565;28;98185;-58
2022/07/23 04:35:17;;;;;;;;;;;;;;;21.02;56.58;100647.19;4883047;28;99247;-57
2022/07/23 04:38:09;;;;;;;;;;;;;;;21.08;56.34;100651.34;4881686;28;98374;-58
2022/07/23 04:41:02;;;;;;;;;;;;;;;21.18;56.26;100633.69;4881346;28;98103;-57
2022/07/23 04:43:54;;;;;;;;;;;;;;;21.28;56.09;100636.84;4863075;28;97665;-58
2022/07/23 04:46:47;;;;;;;;;;;;;;;21.41;56.06;100629.50;4868677;28;98090;-58
2022/07/23 04:49:40;;;;;;;;;;;;;;;21.53;55.72;100637.78;4881583;28;98760;-58
2022/07/23 04:52:32;;;;;;;;;;;;;;;21.69;55.66;100635.22;4880458;28;97943;-58
2022/07/23 04:55:25;;;;;;;;;;;;;;;21.77;55.68;100622.53;4882350;28;97710;-57
2022/07/23 04:58:18;;;;;;;;;;;;;;;21.84;55.47;100602.78;4881137;28;98399;-57
2022/07/23 05:01:10;;;;;;;;;;;;;;;21.89;55.65;100600.66;4882397;28;99325;-64
2022/07/23 05:04:03;;;;;;;;;;;;;;;21.90;55.48;100620.66;4881014;28;98630;-65
2022/07/23 05:06:55;;;;;;;;;;;;;;;21.91;55.65;100630.47;4882529;28;97909;-65
2022/07/23 05:09:48;;;;;;;;;;;;;;;21.88;55.70;100639.38;4878880;28;98847;-57
2022/07/23 05:12:40;;;;;;;;;;;;;;;21.85;55.55;100645.53;4877109;28;98950;-57
2022/07/23 05:15:33;;;;;;;;;;;;;;;21.81;55.73;100645.41;4877171;28;97991;-64
2022/07/23 05:18:26;;;;;;;;;;;;;;;21.78;55.68;100641.41;4878358;28;98205;-65
2022/07/23 05:21:18;;;;;;;;;;;;;;;21.74;55.76;100634.22;4878465;28;98236;-64
2022/07/23 05:24:10;;;;;;;;;;;;;;;21.68;56.02;100630.06;4872800;28;98775;-64
2022/07/23 05:27:03;;;;;;;;;;;;;;;21.60;56.01;100626.25;4878640;28;97959;-58
2022/07/23 05:29:56;;;;;;;;;;;;;;;21.53;56.04;100626.81;4873823;28;98410;-65
2022/07/23 05:32:49;;;;;;;;;;;;;;;21.47;56.13;100622.69;4876763;28;99217;-65
2022/07/23 05:35:41;;;;;;;;;;;;;;;21.43;56.29;100620.97;4875436;28;99363;-64
2022/07/23 05:38:34;;;;;;;;;;;;;;;21.38;56.32;100629.38;4876157;28;98187;-64
2022/07/23 05:41:27;;;;;;;;;;;;;;;21.37;56.22;100634.06;4878740;28;98139;-64
2022/07/23 05:44:20;;;;;;;;;;;;;;;21.41;56.35;100643.22;4877546;28;98758;-64
2022/07/23 05:47:13;;;;;;;;;;;;;;;21.46;56.28;100653.19;4877861;28;98995;-65
2022/07/23 05:50:06;;;;;;;;;;;;;;;21.56;56.18;100661.00;4874245;28;98162;-57
2022/07/23 05:52:58;;;;;;;;;;;;;;;21.67;56.06;100667.66;4877928;28;99138;-64
2022/07/23 05:55:51;;;;;;;;;;;;;;;21.76;56.16;100679.34;4877242;28;98070;-57
2022/07/23 05:58:44;;;;;;;;;;;;;;;21.80;56.03;100688.50;4914508;28;98511;-65
2022/07/23 06:01:37;;;;;;;;;;;;;;;21.78;56.14;100714.69;4876314;28;97949;-64
2022/07/23 06:04:29;;;;;;;;;;;;;;;21.75;56.31;100731.81;4871994;28;97878;-64
2022/07/23 06:07:22;;;;;;;;;;;;;;;21.71;56.47;100741.84;4878097;28;98336;-57
2022/07/23 06:10:14;;;;;;;;;;;;;;;21.74;56.28;100727.47;4876887;28;99159;-58
2022/07/23 06:13:07;;;;;;;;;;;;;;;21.76;56.47;100723.22;4875877;28;98233;-64
2022/07/23 06:16:00;;;;;;;;;;;;;;;21.80;56.14;100721.41;4878593;28;97885;-65
2022/07/23 06:18:52;;;;;;;;;;;;;;;21.82;56.30;100718.34;4876342;28;98483;-58
2022/07/23 06:21:45;;;;;;;;;;;;;;;21.83;56.05;100725.44;4875645;28;98480;-64
2022/07/23 06:24:38;;;;;;;;;;;;;;;21.86;55.81;100740.44;4874722;28;97997;-57
2022/07/23 06:27:30;;;;;;;;;;;;;;;21.87;55.67;100725.56;4872033;28;97873;-64
2022/07/23 06:30:23;;;;;;;;;;;;;;;21.86;55.63;100723.97;4876972;28;98789;-58
2022/07/23 06:33:16;;;;;;;;;;;;;;;21.84;55.46;100734.47;4876811;28;98707;-62
2022/07/23 06:36:08;;;;;;;;;;;;;;;21.77;55.30;100719.38;4879649;28;99245;-58
2022/07/23 06:39:01;;;;;;;;;;;;;;;21.74;55.11;100725.53;4880071;28;97925;-65
2022/07/23 06:41:53;;;;;;;;;;;;;;;21.76;55.01;100734.22;4879875;28;98245;-58
2022/07/23 06:44:46;;;;;;;;;;;;;;;22.08;54.41;100731.00;4878789;28;98424;-57
2022/07/23 06:47:40;;;;;;;;;;;;;;;22.62;53.68;100734.47;4878801;28;99502;-64
2022/07/23 06:50:33;;;;;;;;;;;;;;;23.32;52.41;100730.81;4874311;28;98012;-65
2022/07/23 06:53:25;;;;;;;;;;;;;;;24.08;51.25;100718.84;4878766;28;98220;-64
2022/07/23 06:56:18;;;;;;;;;;;;;;;24.89;50.38;100702.81;4914836;28;98973;-65
2022/07/23 06:59:10;;;;;;;;;;;;;;;25.11;49.54;100689.53;4878373;28;98063;-64
2022/07/23 07:02:03;;;;;;;;;;;;;;;25.05;49.57;100679.91;4879171;28;98249;-65
2022/07/23 07:04:56;;;;;;;;;;;;;;;25.05;49.09;100672.44;4879445;28;98384;-64
2022/07/23 07:07:48;;;;;;;;;;;;;;;25.23;48.48;100683.91;4878837;28;98448;-58
2022/07/23 07:10:41;;;;;;;;;;;;;;;25.16;48.46;100679.03;4878879;28;98238;-58
2022/07/23 07:13:33;;;;;;;;;;;;;;;25.07;48.70;100675.63;4879036;28;98056;-58
2022/07/23 07:16:26;;;;;;;;;;;;;;;25.35;47.68;100671.91;4875561;28;98453;-64
2022/07/23 07:19:19;;;;;;;;;;;;;;;26.28;46.26;100665.41;4878868;28;98666;-58
2022/07/23 07:22:11;;;;;;;;;;;;;;;27.03;45.49;100674.88;4876687;28;98389;-58
2022/07/23 07:25:04;;;;;;;;;;;;;;;27.84;44.40;100680.69;4879445;28;99019;-59
2022/07/23 07:27:56;;;;;;;;;;;;;;;28.74;43.24;100685.06;4878185;28;98752;-58
2022/07/23 07:30:49;;;;;;;;;;;;;;;29.45;41.97;100683.88;4878182;28;99161;-58
2022/07/23 07:33:42;;;;;;;;;;;;;;;29.53;41.27;100689.06;4873558;28;97919;-64
2022/07/23 07:36:36;;;;;;;;;;;;;;;29.19;41.84;100674.63;4879030;28;97983;-58
2022/07/23 07:39:29;;;;;;;;;;;;;;;29.26;41.46;100665.56;4875931;28;99028;-64
2022/07/23 07:42:22;;;;;;;;;;;;;;;29.54;40.91;100670.41;4878723;28;98569;-58
2022/07/23 07:45:15;;;;;;;;;;;;;;;29.93;40.06;100670.56;4877321;28;97965;-65
2022/07/23 07:48:07;;;;;;;;;;;;;;;29.94;38.71;100677.69;4877966;28;98138;-64
2022/07/23 07:51:00;;;;;;;;;;;;;;;30.13;38.85;100684.06;4871957;28;98399;-64
2022/07/23 07:53:52;;;;;;;;;;;;;;;30.67;38.05;100688.47;4873437;28;98380;-58
2022/07/23 07:56:45;;;;;;;;;;;;;;;30.15;38.79;100676.16;4873639;28;98292;-58
2022/07/23 07:59:37;;;;;;;;;;;;;;;29.89;39.59;100668.97;4879131;28;98545;-65
2022/07/23 08:02:30;;;;;;;;;;;;;;;29.62;39.84;100669.28;4878588;28;98530;-65
2022/07/23 08:05:23;;;;;;;;;;;;;;;29.44;39.58;100657.31;4878873;28;98795;-66
2022/07/23 08:08:16;;;;;;;;;;;;;;;29.67;39.58;100659.78;4878273;28;98398;-58
2022/07/23 08:11:08;;;;;;;;;;;;;;;29.93;38.96;100665.00;4879236;28;98871;-59
2022/07/23 08:14:01;;;;;;;;;;;;;;;29.88;38.98;100656.25;4877451;28;98438;-58
2022/07/23 08:16:54;;;;;;;;;;;;;;;29.40;39.49;100665.63;4878520;28;99345;-59
2022/07/23 08:19:46;;;;;;;;;;;;;;;29.05;39.54;100658.72;4873987;28;98401;-58
2022/07/23 08:22:50;;;;;;;;;;;;;;;28.82;40.06;100656.19;4878074;28;98042;-58
2022/07/23 08:25:44;;;;;;;;;;;;;;;28.56;40.11;100657.19;4878008;28;98729;-65
2022/07/23 08:28:37;;;;;;;;;;;;;;;28.54;39.92;100661.56;4875698;28;100237;-58
2022/07/23 08:31:30;;;;;;;;;;;;;;;28.74;39.62;100668.41;4878013;28;98012;-65
2022/07/23 08:34:22;;;;;;;;;;;;;;;30.45;37.60;100678.53;4876376;28;98637;-66
2022/07/23 08:37:15;;;;;;;;;;;;;;;31.78;36.25;100685.34;4876877;28;98809;-59
2022/07/23 08:40:07;;;;;;;;;;;;;;;33.03;34.88;100689.94;4878575;28;98607;-65
2022/07/23 08:43:00;;;;;;;;;;;;;;;34.20;33.58;100687.63;4876923;28;97972;-65
2022/07/23 08:45:56;;;;;;;;;;;;;;;35.17;32.77;100683.91;4878219;28;98198;-65
2022/07/23 08:48:50;;;;;;;;;;;;;;;35.78;32.14;100676.22;4869579;28;98533;-65
2022/07/23 08:51:43;;;;;;;;;;;;;;;35.36;32.18;100679.50;4877651;28;98585;-58
2022/07/23 08:54:35;;;;;;;;;;;;;;;34.63;32.87;100678.53;4874251;28;98256;-62
2022/07/23 08:57:28;;;;;;;;;;;;;;;34.39;32.62;100676.94;4877625;28;98350;-58
2022/07/23 09:00:21;;;;;;;;;;;;;;;34.48;32.80;100677.16;4877385;28;98752;-65
2022/07/23 09:03:14;;;;;;;;;;;;;;;33.84;33.39;100665.00;4877115;28;98718;-58
2022/07/23 09:06:07;;;;;;;;;;;;;;;34.14;32.93;100672.53;4877174;28;98054;-58
2022/07/23 09:09:09;;;;;;;;;;;;;;;35.39;31.82;100680.66;4870614;28;97984;-66
2022/07/23 09:12:14;;;;;;;;;;;;;;;35.85;31.53;100676.84;4871332;28;98587;-59
2022/07/23 09:15:07;;;;;;;;;;;;;;;36.85;30.39;100679.97;4875595;28;97833;-59
2022/07/23 09:18:00;;;;;;;;;;;;;;;36.90;30.30;100686.28;4906625;28;98618;-58
2022/07/23 09:20:53;;;;;;;;;;;;;;;36.48;30.92;100680.59;4877552;28;98595;-59
2022/07/23 09:24:15;;;;;;;;;;;;;;;35.68;31.39;100685.66;4876802;28;98438;-59
2022/07/23 09:27:25;;;;;;;;;;;;;;;34.67;33.93;100684.06;4876726;28;98901;-67
2022/07/23 09:30:35;;;;;;;;;;;;;;;33.89;34.49;100681.28;4876545;28;98117;-64
2022/07/23 09:33:45;;;;;;;;;;;;;;;33.48;34.71;100692.63;4877504;28;98234;-65
2022/07/23 09:36:50;;;;;;;;;;;;;;;34.04;34.83;100701.47;4876781;28;99084;-61
2022/07/23 09:39:44;;;;;;;;;;;;;;;34.72;34.31;100691.16;4874664;28;98413;-65
2022/07/23 09:42:46;;;;;;;;;;;;;;;36.41;32.70;100689.94;4876135;28;98058;-61
2022/07/23 09:45:39;;;;;;;;;;;;;;;36.68;32.39;100700.91;4868573;28;98444;-60
2022/07/23 09:48:52;;;;;;;;;;;;;;;36.14;32.93;100693.81;4876193;28;98710;-60
2022/07/23 09:51:51;;;;;;;;;;;;;;;35.03;33.88;100687.00;4874134;28;98408;-64
2022/07/23 09:55:06;;;;;;;;;;;;;;;34.29;34.81;100691.88;4874203;28;98219;-66
2022/07/23 10:01:08;;;;;;;;;;;;;;;33.16;35.71;100682.63;4871804;28;99519;-60
2022/07/23 10:04:01;;;;;;;;;;;;;;;32.57;35.70;100688.38;4876607;28;98115;-60
2022/07/23 10:06:54;;;;;;;;;;;;;;;31.93;36.41;100695.22;4877130;28;97849;-66
2022/07/23 10:09:47;;;;;;;;;;;;;;;31.42;37.09;100720.94;4878390;28;97937;-60
2022/07/23 10:15:49;;;;;;;;;;;;;;;30.75;38.14;100717.09;4885423;28;98609;-60
2022/07/23 10:18:42;;;;;;;;;;;;;;;30.59;37.94;100723.03;4879129;28;99682;-59
2022/07/23 10:21:54;;;;;;;;;;;;;;;30.93;37.38;100725.41;4881995;28;99173;-59
2022/07/23 10:25:07;;;;;;;;;;;;;;;31.42;36.84;100732.88;4880243;28;98481;-59
2022/07/23 10:28:23;;;;;;;;;;;;;;;31.75;36.41;100730.72;4886436;28;98097;-66
2022/07/23 10:31:49;;;;;;;;;;;;;;;31.50;37.05;100744.78;4906197;28;98145;-66
2022/07/23 10:35:02;;;;;;;;;;;;;;;31.66;37.21;100733.97;4909804;28;97856;-65
2022/07/23 10:38:15;;;;;;;;;;;;;;;31.45;37.17;100739.63;4886909;28;98478;-65
2022/07/23 10:41:17;;;;;;;;;;;;;;;31.00;37.60;100739.31;4886541;28;98598;-66
2022/07/23 10:44:38;;;;;;;;;;;;;;;30.80;37.67;100736.94;4881130;28;97993;-59
2022/07/23 10:47:58;;;;;;;;;;;;;;;30.43;38.45;100748.47;4878516;28;98262;-59
2022/07/23 10:50:51;;;;;;;;;;;;;;;30.31;38.29;100754.41;4873593;28;98286;-65
2022/07/23 10:53:55;;;;;;;;;;;;;;;30.60;38.20;100749.66;4877385;28;98273;-66
2022/07/23 10:57:24;;;;;;;;;;;;;;;31.63;36.99;100754.25;4881435;28;97796;-65
2022/07/23 11:00:40;;;;;;;;;;;;;;;31.84;36.46;100763.75;4821313;28;98194;-65
2022/07/23 11:03:54;;;;;;;;;;;;;;;31.80;36.82;100763.75;4914359;28;98890;-60
2022/07/23 11:07:18;;;;;;;;;;;;;;;31.21;37.32;100774.66;4880149;28;98293;-66
2022/07/23 11:10:10;;;;;;;;;;;;;;;30.51;38.08;100766.72;4892545;28;98472;-64
2022/07/23 11:13:03;;;;;;;;;;;;;;;30.03;38.45;100761.47;4882227;28;98007;-65
2022/07/23 11:16:08;;;;;;;;;;;;;;;29.59;38.97;100768.06;4882069;28;98431;-59
2022/07/23 11:19:18;;;;;;;;;;;;;;;29.14;39.93;100774.13;4871338;28;98600;-60
2022/07/23 11:22:11;;;;;;;;;;;;;;;28.78;40.56;100788.47;4879384;28;98003;-66
2022/07/23 11:25:08;;;;;;;;;;;;;;;28.58;40.23;100781.56;4883187;28;97921;-64
2022/07/23 11:28:25;;;;;;;;;;;;;;;28.44;40.30;100787.78;4881409;28;98542;-60
2022/07/23 11:31:25;;;;;;;;;;;;;;;28.25;41.06;100790.72;4881301;28;99075;-64
2022/07/23 11:34:56;;;;;;;;;;;;;;;28.04;41.30;100794.06;4876246;28;98729;-59
2022/07/23 11:38:20;;;;;;;;;;;;;;;27.89;41.72;100787.53;4870544;28;98474;-59
2022/07/23 11:41:13;;;;;;;;;;;;;;;27.92;41.71;100792.34;4878222;28;98436;-59
2022/07/23 11:44:05;;;;;;;;;;;;;;;28.00;41.68;100784.91;4875851;28;98387;-59
2022/07/23 11:47:09;;;;;;;;;;;;;;;28.00;41.60;100796.78;4881191;28;98477;-59
2022/07/23 11:50:13;;;;;;;;;;;;;;;27.88;41.86;100794.25;4882622;28;98052;-59
2022/07/23 11:53:06;;;;;;;;;;;;;;;27.68;42.18;100788.06;4905723;27;98609;-59
2022/07/23 11:55:59;;;;;;;;;;;;;;;27.42;42.50;100795.22;4881144;28;98554;-63
2022/07/23 11:59:02;;;;;;;;;;;;;;;27.21;42.73;100799.66;4881565;28;97961;-59
2022/07/23 12:02:06;;;;;;;;;;;;;;;26.99;43.27;100788.22;4881733;28;97805;-59
2022/07/23 12:05:30;;;;;;;;;;;;;;;26.84;43.31;100780.84;4877573;28;98471;-64
2022/07/23 12:08:23;;;;;;;;;;;;;;;26.71;43.61;100785.78;4878401;28;98459;-64
2022/07/23 12:11:15;;;;;;;;;;;;;;;26.58;44.26;100795.44;4878308;28;98187;-59
2022/07/23 12:14:20;;;;;;;;;;;;;;;26.51;44.86;100798.06;4878619;28;98111;-59
2022/07/23 12:17:24;;;;;;;;;;;;;;;26.39;45.43;100805.31;4878312;28;98399;-59
2022/07/23 12:20:18;;;;;;;;;;;;;;;26.30;45.92;100799.25;4878589;28;98205;-59
2022/07/23 12:23:11;;;;;;;;;;;;;;;26.21;46.23;100782.09;4877138;28;98798;-59
2022/07/23 12:26:06;;;;;;;;;;;;;;;26.17;46.37;100773.75;4875930;28;98368;-59
2022/07/23 12:29:00;;;;;;;;;;;;;;;26.20;46.55;100774.97;4876424;28;98338;-65
2022/07/23 12:31:53;;;;;;;;;;;;;;;26.25;46.59;100790.44;4871367;28;98628;-58
2022/07/23 12:34:46;;;;;;;;;;;;;;;26.28;46.76;100787.75;4874499;28;97998;-63
2022/07/23 12:38:08;;;;;;;;;;;;;;;26.35;46.68;100787.09;4878905;28;97795;-65
2022/07/23 12:41:10;;;;;;;;;;;;;;;26.53;46.39;100793.78;4935571;28;98213;-65
2022/07/23 12:44:03;;;;;;;;;;;;;;;26.75;46.32;100792.16;4935162;28;98285;-58
2022/07/23 12:46:58;;;;;;;;;;;;;;;27.41;45.29;100787.28;4874878;28;97826;-63
2022/07/23 12:49:50;;;;;;;;;;;;;;;28.07;44.14;100801.59;4876618;28;98194;-58
2022/07/23 12:52:43;;;;;;;;;;;;;;;28.47;43.63;100806.41;4871353;28;98758;-64
2022/07/23 12:55:47;;;;;;;;;;;;;;;29.06;42.60;100796.25;4877133;28;98305;-58
2022/07/23 12:59:10;;;;;;;;;;;;;;;29.34;42.42;100803.19;4878824;28;97926;-63
2022/07/23 13:02:12;;;;;;;;;;;;;;;29.50;41.05;100800.88;4887094;28;97911;-63
2022/07/23 13:05:05;;;;;;;;;;;;;;;29.56;40.87;100801.34;4878154;28;98999;-58
2022/07/23 13:07:58;;;;;;;;;;;;;;;29.46;40.69;100799.28;4878418;28;98464;-59
2022/07/23 13:10:51;;;;;;;;;;;;;;;29.42;40.83;100799.25;4877601;28;97949;-63
2022/07/23 13:13:44;;;;;;;;;;;;;;;29.36;41.01;100795.28;4878483;28;98607;-58
2022/07/23 13:16:37;;;;;;;;;;;;;;;29.16;40.52;100797.53;4877041;28;99082;-58
2022/07/23 13:19:29;;;;;;;;;;;;;;;28.97;40.67;100803.31;4878078;28;98621;-58
2022/07/23 13:22:22;;;;;;;;;;;;;;;28.79;41.10;100803.94;4878085;28;98360;-63
2022/07/23 13:25:14;;;;;;;;;;;;;;;28.61;41.19;100794.66;4878224;28;99323;-63
2022/07/23 13:28:07;;;;;;;;;;;;;;;28.50;41.55;100793.78;4877555;28;98547;-58
2022/07/23 13:31:00;;;;;;;;;;;;;;;28.40;41.28;100789.72;4877889;28;98421;-63
2022/07/23 13:33:52;;;;;;;;;;;;;;;28.30;41.05;100787.63;4878270;28;98261;-63
2022/07/23 13:36:45;;;;;;;;;;;;;;;28.26;41.06;100792.31;4878374;28;99365;-63
2022/07/23 13:39:37;;;;;;;;;;;;;;;28.31;40.86;100791.97;4878349;28;98031;-58
2022/07/23 13:42:30;;;;;;;;;;;;;;;28.34;40.94;100796.75;4877226;28;98797;-65
2022/07/23 13:45:23;;;;;;;;;;;;;;;28.32;41.08;100797.13;4877480;28;97890;-63
2022/07/23 13:48:15;;;;;;;;;;;;;;;28.28;41.02;100795.50;4877506;28;98232;-58
2022/07/23 13:51:08;;;;;;;;;;;;;;;28.21;40.63;100793.44;4877513;28;99177;-58
2022/07/23 13:54:02;;;;;;;;;;;;;;;28.19;40.82;100790.25;4877162;28;98665;-58
2022/07/23 13:56:55;;;;;;;;;;;;;;;28.17;40.66;100789.03;4877454;28;98207;-63
2022/07/23 13:59:48;;;;;;;;;;;;;;;28.19;40.64;100787.50;4878386;28;99014;-58
2022/07/23 14:02:41;;;;;;;;;;;;;;;28.22;40.26;100791.47;4874752;28;100175;-63
2022/07/23 14:05:33;;;;;;;;;;;;;;;28.81;39.77;100789.69;4877807;28;98209;-63
2022/07/23 14:08:26;;;;;;;;;;;;;;;28.91;39.77;100788.19;4877190;28;98681;-63
2022/07/23 14:11:19;;;;;;;;;;;;;;;28.96;39.87;100780.28;4875617;28;98051;-58
2022/07/23 14:14:11;;;;;;;;;;;;;;;29.10;39.14;100787.97;4877398;28;98744;-58
2022/07/23 14:17:04;;;;;;;;;;;;;;;29.13;39.38;100781.66;4877375;28;98609;-58
2022/07/23 14:19:57;;;;;;;;;;;;;;;29.13;39.02;100778.06;4875362;28;100156;-58
2022/07/23 14:22:49;;;;;;;;;;;;;;;28.83;39.37;100777.03;4877059;28;97913;-58
2022/07/23 14:25:42;;;;;;;;;;;;;;;28.67;39.79;100776.50;4872329;28;98391;-58
2022/07/23 14:28:35;;;;;;;;;;;;;;;28.62;39.98;100779.63;4875174;28;98163;-63
2022/07/23 14:31:27;;;;;;;;;;;;;;;28.60;39.97;100771.69;4876470;28;98307;-58
2022/07/23 14:34:20;;;;;;;;;;;;;;;28.58;39.92;100778.81;4877528;28;97937;-58
2022/07/23 14:37:13;;;;;;;;;;;;;;;28.53;40.12;100788.28;4876521;28;99231;-58
2022/07/23 14:40:05;;;;;;;;;;;;;;;28.51;39.72;100787.06;4877038;28;98523;-58
2022/07/23 14:42:58;;;;;;;;;;;;;;;28.49;39.65;100787.44;4876572;28;98064;-58
2022/07/23 14:45:50;;;;;;;;;;;;;;;28.49;39.91;100784.69;4876874;28;97993;-58
2022/07/23 14:48:43;;;;;;;;;;;;;;;28.47;39.73;100784.25;4877190;28;98369;-58
2022/07/23 14:51:36;;;;;;;;;;;;;;;28.43;39.75;100788.97;4876338;28;98503;-58
2022/07/23 14:54:29;;;;;;;;;;;;;;;28.41;39.96;100790.50;4877603;28;97881;-63
2022/07/23 14:57:22;;;;;;;;;;;;;;;28.36;40.16;100780.53;4880175;28;97888;-64
2022/07/23 15:00:14;;;;;;;;;;;;;;;28.37;39.96;100788.53;4879578;28;98256;-63
2022/07/23 15:03:07;;;;;;;;;;;;;;;28.30;40.24;100784.84;4879504;28;98598;-58
2022/07/23 15:05:59;;;;;;;;;;;;;;;28.31;40.33;100786.44;4879930;28;97885;-58
2022/07/23 15:08:52;;;;;;;;;;;;;;;28.51;40.07;100785.06;4896416;28;98225;-58